sensor_id;sensor_type;location;lat;lon;timestamp;P1;durP1;ratioP1;P2;durP2;ratioP2
10061;SDS011;5070;52.382;5.270;2023-11-21T00:00:38;8.88;;;3.33;;
10061;SDS011;5070;52.382;5.270;2023-11-21T00:03:06;6.82;;;5.05;;
10061;SDS011;5070;52.382;5.270;2023-11-21T00:05:34;7.25;;;4.25;;
10061;SDS011;5070;52.382;5.270;2023-11-21T00:08:02;4.88;;;4.53;;
10061;SDS011;5070;52.382;5.270;2023-11-21T00:10:31;7.55;;;5.20;;
10061;SDS011;5070;52.382;5.270;2023-11-21T00:13:00;3.53;;;3.10;;
10061;SDS011;5070;52.382;5.270;2023-11-21T00:15:29;4.65;;;4.38;;
10061;SDS011;5070;52.382;5.270;2023-11-21T00:17:57;8.88;;;4.70;;
10061;SDS011;5070;52.382;5.270;2023-11-21T00:20:25;3.63;;;3.25;;
10061;SDS011;5070;52.382;5.270;2023-11-21T00:22:53;4.13;;;3.10;;
10061;SDS011;5070;52.382;5.270;2023-11-21T00:25:21;5.90;;;4.57;;
10061;SDS011;5070;52.382;5.270;2023-11-21T00:27:49;4.90;;;3.38;;
10061;SDS011;5070;52.382;5.270;2023-11-21T00:30:18;6.25;;;4.60;;
10061;SDS011;5070;52.382;5.270;2023-11-21T00:32:48;5.47;;;3.45;;
10061;SDS011;5070;52.382;5.270;2023-11-21T00:35:16;6.70;;;3.95;;
10061;SDS011;5070;52.382;5.270;2023-11-21T00:37:44;5.00;;;4.72;;
10061;SDS011;5070;52.382;5.270;2023-11-21T00:40:12;6.25;;;4.35;;
10061;SDS011;5070;52.382;5.270;2023-11-21T00:42:42;7.70;;;4.82;;
10061;SDS011;5070;52.382;5.270;2023-11-21T00:45:10;6.68;;;5.75;;
10061;SDS011;5070;52.382;5.270;2023-11-21T00:47:39;5.57;;;5.28;;
10061;SDS011;5070;52.382;5.270;2023-11-21T00:50:08;5.95;;;3.85;;
10061;SDS011;5070;52.382;5.270;2023-11-21T00:52:36;6.97;;;3.72;;
10061;SDS011;5070;52.382;5.270;2023-11-21T00:55:05;6.13;;;4.85;;
10061;SDS011;5070;52.382;5.270;2023-11-21T00:57:34;5.75;;;4.40;;
10061;SDS011;5070;52.382;5.270;2023-11-21T01:00:03;15.10;;;4.88;;
10061;SDS011;5070;52.382;5.270;2023-11-21T01:02:35;5.82;;;4.13;;
10061;SDS011;5070;52.382;5.270;2023-11-21T01:05:05;5.95;;;4.25;;
10061;SDS011;5070;52.382;5.270;2023-11-21T01:07:35;5.82;;;5.22;;
10061;SDS011;5070;52.382;5.270;2023-11-21T01:10:03;7.35;;;5.03;;
10061;SDS011;5070;52.382;5.270;2023-11-21T01:12:34;4.18;;;3.90;;
10061;SDS011;5070;52.382;5.270;2023-11-21T01:15:02;4.18;;;3.92;;
10061;SDS011;5070;52.382;5.270;2023-11-21T01:17:33;4.55;;;4.25;;
10061;SDS011;5070;52.382;5.270;2023-11-21T01:20:02;3.90;;;3.47;;
10061;SDS011;5070;52.382;5.270;2023-11-21T01:22:34;5.78;;;3.80;;
10061;SDS011;5070;52.382;5.270;2023-11-21T01:25:02;5.63;;;5.32;;
10061;SDS011;5070;52.382;5.270;2023-11-21T01:27:33;5.35;;;4.85;;
10061;SDS011;5070;52.382;5.270;2023-11-21T01:30:01;6.97;;;3.95;;
10061;SDS011;5070;52.382;5.270;2023-11-21T01:32:29;5.80;;;4.45;;
10061;SDS011;5070;52.382;5.270;2023-11-21T01:34:57;5.88;;;3.92;;
10061;SDS011;5070;52.382;5.270;2023-11-21T01:37:27;13.13;;;4.20;;
10061;SDS011;5070;52.382;5.270;2023-11-21T01:39:57;7.95;;;4.45;;
10061;SDS011;5070;52.382;5.270;2023-11-21T01:42:25;4.55;;;3.45;;
10061;SDS011;5070;52.382;5.270;2023-11-21T01:44:55;5.45;;;4.07;;
10061;SDS011;5070;52.382;5.270;2023-11-21T01:47:23;7.25;;;5.35;;
10061;SDS011;5070;52.382;5.270;2023-11-21T01:49:51;5.60;;;4.47;;
10061;SDS011;5070;52.382;5.270;2023-11-21T01:52:20;4.85;;;4.40;;
10061;SDS011;5070;52.382;5.270;2023-11-21T01:54:48;3.30;;;3.10;;
10061;SDS011;5070;52.382;5.270;2023-11-21T01:57:18;4.20;;;3.95;;
10061;SDS011;5070;52.382;5.270;2023-11-21T01:59:47;4.10;;;3.90;;
10061;SDS011;5070;52.382;5.270;2023-11-21T02:02:16;5.00;;;3.85;;
10061;SDS011;5070;52.382;5.270;2023-11-21T02:04:44;3.58;;;2.83;;
10061;SDS011;5070;52.382;5.270;2023-11-21T02:07:12;11.98;;;5.10;;
10061;SDS011;5070;52.382;5.270;2023-11-21T02:09:40;4.45;;;4.07;;
10061;SDS011;5070;52.382;5.270;2023-11-21T02:12:09;3.30;;;3.10;;
10061;SDS011;5070;52.382;5.270;2023-11-21T02:14:39;3.78;;;3.45;;
10061;SDS011;5070;52.382;5.270;2023-11-21T02:17:07;3.85;;;3.63;;
10061;SDS011;5070;52.382;5.270;2023-11-21T02:19:35;10.20;;;4.30;;
10061;SDS011;5070;52.382;5.270;2023-11-21T02:22:04;7.38;;;3.75;;
10061;SDS011;5070;52.382;5.270;2023-11-21T02:24:34;3.75;;;3.17;;
10061;SDS011;5070;52.382;5.270;2023-11-21T02:27:03;10.20;;;4.93;;
10061;SDS011;5070;52.382;5.270;2023-11-21T02:29:32;4.63;;;4.35;;
10061;SDS011;5070;52.382;5.270;2023-11-21T02:32:00;4.30;;;3.92;;
10061;SDS011;5070;52.382;5.270;2023-11-21T02:34:27;3.97;;;3.78;;
10061;SDS011;5070;52.382;5.270;2023-11-21T02:36:55;5.45;;;4.65;;
10061;SDS011;5070;52.382;5.270;2023-11-21T02:39:23;6.35;;;4.80;;
10061;SDS011;5070;52.382;5.270;2023-11-21T02:41:53;2.70;;;2.60;;
10061;SDS011;5070;52.382;5.270;2023-11-21T02:44:21;2.80;;;2.28;;
10061;SDS011;5070;52.382;5.270;2023-11-21T02:46:49;3.45;;;2.83;;
10061;SDS011;5070;52.382;5.270;2023-11-21T02:49:17;6.65;;;3.35;;
10061;SDS011;5070;52.382;5.270;2023-11-21T02:51:45;6.97;;;2.92;;
10061;SDS011;5070;52.382;5.270;2023-11-21T02:54:13;6.40;;;3.90;;
10061;SDS011;5070;52.382;5.270;2023-11-21T02:56:45;7.47;;;3.72;;
10061;SDS011;5070;52.382;5.270;2023-11-21T02:59:15;5.22;;;4.93;;
10061;SDS011;5070;52.382;5.270;2023-11-21T03:01:42;4.28;;;3.92;;
10061;SDS011;5070;52.382;5.270;2023-11-21T03:04:11;4.63;;;3.28;;
10061;SDS011;5070;52.382;5.270;2023-11-21T03:06:44;3.75;;;3.60;;
10061;SDS011;5070;52.382;5.270;2023-11-21T03:09:12;3.95;;;3.55;;
10061;SDS011;5070;52.382;5.270;2023-11-21T03:11:40;5.95;;;4.57;;
10061;SDS011;5070;52.382;5.270;2023-11-21T03:14:08;4.97;;;4.50;;
10061;SDS011;5070;52.382;5.270;2023-11-21T03:16:39;2.83;;;2.63;;
10061;SDS011;5070;52.382;5.270;2023-11-21T03:19:07;5.63;;;5.32;;
10061;SDS011;5070;52.382;5.270;2023-11-21T03:21:35;5.00;;;3.67;;
10061;SDS011;5070;52.382;5.270;2023-11-21T03:24:03;4.68;;;3.97;;
10061;SDS011;5070;52.382;5.270;2023-11-21T03:26:32;3.75;;;3.55;;
10061;SDS011;5070;52.382;5.270;2023-11-21T03:29:00;4.95;;;4.35;;
10061;SDS011;5070;52.382;5.270;2023-11-21T03:31:28;3.80;;;3.63;;
10061;SDS011;5070;52.382;5.270;2023-11-21T03:33:58;6.30;;;3.33;;
10061;SDS011;5070;52.382;5.270;2023-11-21T03:36:26;4.93;;;2.78;;
10061;SDS011;5070;52.382;5.270;2023-11-21T03:38:54;3.50;;;2.80;;
10061;SDS011;5070;52.382;5.270;2023-11-21T03:41:22;7.28;;;4.40;;
10061;SDS011;5070;52.382;5.270;2023-11-21T03:43:50;3.58;;;3.38;;
10061;SDS011;5070;52.382;5.270;2023-11-21T03:46:18;5.78;;;4.45;;
10061;SDS011;5070;52.382;5.270;2023-11-21T03:48:46;4.90;;;3.30;;
10061;SDS011;5070;52.382;5.270;2023-11-21T03:51:17;6.72;;;4.55;;
10061;SDS011;5070;52.382;5.270;2023-11-21T03:53:45;8.55;;;4.13;;
10061;SDS011;5070;52.382;5.270;2023-11-21T03:56:13;7.93;;;4.53;;
10061;SDS011;5070;52.382;5.270;2023-11-21T03:58:41;8.15;;;5.20;;
10061;SDS011;5070;52.382;5.270;2023-11-21T04:01:09;5.97;;;3.83;;
10061;SDS011;5070;52.382;5.270;2023-11-21T04:03:37;3.30;;;3.10;;
10061;SDS011;5070;52.382;5.270;2023-11-21T04:06:07;7.88;;;4.28;;
10061;SDS011;5070;52.382;5.270;2023-11-21T04:08:37;4.03;;;3.22;;
10061;SDS011;5070;52.382;5.270;2023-11-21T04:11:05;4.35;;;4.10;;
10061;SDS011;5070;52.382;5.270;2023-11-21T04:13:33;10.40;;;4.90;;
10061;SDS011;5070;52.382;5.270;2023-11-21T04:16:01;5.57;;;5.28;;
10061;SDS011;5070;52.382;5.270;2023-11-21T04:18:30;4.20;;;3.30;;
10061;SDS011;5070;52.382;5.270;2023-11-21T04:20:57;4.47;;;3.55;;
10061;SDS011;5070;52.382;5.270;2023-11-21T04:23:27;4.53;;;3.78;;
10061;SDS011;5070;52.382;5.270;2023-11-21T04:25:57;4.00;;;3.70;;
10061;SDS011;5070;52.382;5.270;2023-11-21T04:28:25;6.18;;;3.58;;
10061;SDS011;5070;52.382;5.270;2023-11-21T04:30:53;8.48;;;4.38;;
10061;SDS011;5070;52.382;5.270;2023-11-21T04:33:21;6.70;;;3.75;;
10061;SDS011;5070;52.382;5.270;2023-11-21T04:35:50;4.43;;;4.13;;
10061;SDS011;5070;52.382;5.270;2023-11-21T04:38:18;3.40;;;2.88;;
10061;SDS011;5070;52.382;5.270;2023-11-21T04:40:46;3.67;;;2.83;;
10061;SDS011;5070;52.382;5.270;2023-11-21T04:43:15;7.50;;;3.50;;
10061;SDS011;5070;52.382;5.270;2023-11-21T04:45:44;6.75;;;4.45;;
10061;SDS011;5070;52.382;5.270;2023-11-21T04:48:12;6.10;;;4.03;;
10061;SDS011;5070;52.382;5.270;2023-11-21T04:50:40;4.68;;;3.70;;
10061;SDS011;5070;52.382;5.270;2023-11-21T04:53:08;5.70;;;3.75;;
10061;SDS011;5070;52.382;5.270;2023-11-21T04:55:39;3.80;;;3.65;;
10061;SDS011;5070;52.382;5.270;2023-11-21T04:58:07;2.95;;;2.78;;
10061;SDS011;5070;52.382;5.270;2023-11-21T05:00:36;5.38;;;4.45;;
10061;SDS011;5070;52.382;5.270;2023-11-21T05:03:04;4.57;;;2.70;;
10061;SDS011;5070;52.382;5.270;2023-11-21T05:05:34;3.47;;;3.00;;
10061;SDS011;5070;52.382;5.270;2023-11-21T05:08:02;3.92;;;3.45;;
10061;SDS011;5070;52.382;5.270;2023-11-21T05:10:30;3.60;;;3.00;;
10061;SDS011;5070;52.382;5.270;2023-11-21T05:12:58;4.93;;;3.70;;
10061;SDS011;5070;52.382;5.270;2023-11-21T05:15:26;4.78;;;3.22;;
10061;SDS011;5070;52.382;5.270;2023-11-21T05:17:56;5.07;;;3.15;;
10061;SDS011;5070;52.382;5.270;2023-11-21T05:20:26;4.22;;;3.17;;
10061;SDS011;5070;52.382;5.270;2023-11-21T05:22:55;3.33;;;2.40;;
10061;SDS011;5070;52.382;5.270;2023-11-21T05:25:25;7.38;;;3.80;;
10061;SDS011;5070;52.382;5.270;2023-11-21T05:27:53;3.85;;;2.75;;
10061;SDS011;5070;52.382;5.270;2023-11-21T05:30:21;3.05;;;2.78;;
10061;SDS011;5070;52.382;5.270;2023-11-21T05:32:49;7.03;;;3.15;;
10061;SDS011;5070;52.382;5.270;2023-11-21T05:35:19;4.05;;;2.90;;
10061;SDS011;5070;52.382;5.270;2023-11-21T05:37:47;2.92;;;2.50;;
10061;SDS011;5070;52.382;5.270;2023-11-21T05:40:15;5.40;;;3.45;;
10061;SDS011;5070;52.382;5.270;2023-11-21T05:42:44;6.72;;;3.53;;
10061;SDS011;5070;52.382;5.270;2023-11-21T05:45:12;5.63;;;2.53;;
10061;SDS011;5070;52.382;5.270;2023-11-21T05:47:41;3.40;;;3.20;;
10061;SDS011;5070;52.382;5.270;2023-11-21T05:50:10;3.40;;;3.22;;
10061;SDS011;5070;52.382;5.270;2023-11-21T05:52:42;4.75;;;3.00;;
10061;SDS011;5070;52.382;5.270;2023-11-21T05:55:11;3.67;;;2.95;;
10061;SDS011;5070;52.382;5.270;2023-11-21T05:57:40;2.97;;;2.78;;
10061;SDS011;5070;52.382;5.270;2023-11-21T06:00:11;5.20;;;2.72;;
10061;SDS011;5070;52.382;5.270;2023-11-21T06:02:44;5.75;;;3.08;;
10061;SDS011;5070;52.382;5.270;2023-11-21T06:05:13;4.70;;;3.88;;
10061;SDS011;5070;52.382;5.270;2023-11-21T06:07:42;7.50;;;3.47;;
10061;SDS011;5070;52.382;5.270;2023-11-21T06:10:10;3.42;;;2.45;;
10061;SDS011;5070;52.382;5.270;2023-11-21T06:12:40;2.67;;;2.00;;
10061;SDS011;5070;52.382;5.270;2023-11-21T06:15:10;5.50;;;2.97;;
10061;SDS011;5070;52.382;5.270;2023-11-21T06:17:40;3.13;;;2.28;;
10061;SDS011;5070;52.382;5.270;2023-11-21T06:20:09;5.63;;;2.67;;
10061;SDS011;5070;52.382;5.270;2023-11-21T06:22:41;3.60;;;3.13;;
10061;SDS011;5070;52.382;5.270;2023-11-21T06:25:11;3.72;;;2.72;;
10061;SDS011;5070;52.382;5.270;2023-11-21T06:27:41;3.65;;;2.67;;
10061;SDS011;5070;52.382;5.270;2023-11-21T06:30:11;2.60;;;2.08;;
10061;SDS011;5070;52.382;5.270;2023-11-21T06:32:40;5.30;;;2.58;;
10061;SDS011;5070;52.382;5.270;2023-11-21T06:35:12;11.18;;;3.22;;
10061;SDS011;5070;52.382;5.270;2023-11-21T06:37:43;4.38;;;3.75;;
10061;SDS011;5070;52.382;5.270;2023-11-21T06:40:14;7.78;;;3.45;;
10061;SDS011;5070;52.382;5.270;2023-11-21T06:42:42;3.78;;;2.75;;
10061;SDS011;5070;52.382;5.270;2023-11-21T06:45:10;3.75;;;3.15;;
10061;SDS011;5070;52.382;5.270;2023-11-21T06:47:39;4.07;;;2.70;;
10061;SDS011;5070;52.382;5.270;2023-11-21T06:50:08;7.13;;;2.50;;
10061;SDS011;5070;52.382;5.270;2023-11-21T06:52:36;4.60;;;2.97;;
10061;SDS011;5070;52.382;5.270;2023-11-21T06:55:07;2.10;;;1.58;;
10061;SDS011;5070;52.382;5.270;2023-11-21T06:57:36;2.67;;;2.25;;
10061;SDS011;5070;52.382;5.270;2023-11-21T07:00:05;5.13;;;4.82;;
10061;SDS011;5070;52.382;5.270;2023-11-21T07:02:35;3.45;;;3.03;;
10061;SDS011;5070;52.382;5.270;2023-11-21T07:05:05;4.68;;;4.38;;
10061;SDS011;5070;52.382;5.270;2023-11-21T07:07:33;3.55;;;2.75;;
10061;SDS011;5070;52.382;5.270;2023-11-21T07:10:03;2.28;;;1.95;;
10061;SDS011;5070;52.382;5.270;2023-11-21T07:12:33;2.78;;;1.98;;
10061;SDS011;5070;52.382;5.270;2023-11-21T07:15:02;4.93;;;2.22;;
10061;SDS011;5070;52.382;5.270;2023-11-21T07:17:31;3.42;;;2.72;;
10061;SDS011;5070;52.382;5.270;2023-11-21T07:20:03;3.20;;;2.13;;
10061;SDS011;5070;52.382;5.270;2023-11-21T07:22:33;2.70;;;1.98;;
10061;SDS011;5070;52.382;5.270;2023-11-21T07:25:00;4.80;;;2.47;;
10061;SDS011;5070;52.382;5.270;2023-11-21T07:27:28;3.80;;;2.38;;
10061;SDS011;5070;52.382;5.270;2023-11-21T07:29:58;4.97;;;3.10;;
10061;SDS011;5070;52.382;5.270;2023-11-21T07:32:26;2.65;;;1.90;;
10061;SDS011;5070;52.382;5.270;2023-11-21T07:34:54;3.45;;;1.63;;
10061;SDS011;5070;52.382;5.270;2023-11-21T07:37:24;2.75;;;2.42;;
10061;SDS011;5070;52.382;5.270;2023-11-21T07:39:55;5.28;;;3.60;;
10061;SDS011;5070;52.382;5.270;2023-11-21T07:42:23;3.40;;;3.20;;
10061;SDS011;5070;52.382;5.270;2023-11-21T07:44:52;2.30;;;2.08;;
10061;SDS011;5070;52.382;5.270;2023-11-21T07:47:22;3.00;;;2.17;;
10061;SDS011;5070;52.382;5.270;2023-11-21T07:49:54;2.55;;;1.85;;
10061;SDS011;5070;52.382;5.270;2023-11-21T07:52:23;3.42;;;2.03;;
10061;SDS011;5070;52.382;5.270;2023-11-21T07:54:51;2.42;;;1.70;;
10061;SDS011;5070;52.382;5.270;2023-11-21T07:57:19;5.18;;;2.45;;
10061;SDS011;5070;52.382;5.270;2023-11-21T07:59:47;2.50;;;2.00;;
10061;SDS011;5070;52.382;5.270;2023-11-21T08:02:15;3.50;;;2.40;;
10061;SDS011;5070;52.382;5.270;2023-11-21T08:04:45;8.43;;;1.83;;
10061;SDS011;5070;52.382;5.270;2023-11-21T08:07:15;3.53;;;2.35;;
10061;SDS011;5070;52.382;5.270;2023-11-21T08:09:44;3.03;;;1.92;;
10061;SDS011;5070;52.382;5.270;2023-11-21T08:12:14;9.55;;;2.75;;
10061;SDS011;5070;52.382;5.270;2023-11-21T08:14:42;4.97;;;2.20;;
10061;SDS011;5070;52.382;5.270;2023-11-21T08:17:10;2.30;;;1.65;;
10061;SDS011;5070;52.382;5.270;2023-11-21T08:19:40;2.45;;;1.67;;
10061;SDS011;5070;52.382;5.270;2023-11-21T08:22:10;3.75;;;2.05;;
10061;SDS011;5070;52.382;5.270;2023-11-21T08:24:38;4.85;;;2.47;;
10061;SDS011;5070;52.382;5.270;2023-11-21T08:27:05;2.08;;;1.38;;
10061;SDS011;5070;52.382;5.270;2023-11-21T08:29:33;2.70;;;1.90;;
10061;SDS011;5070;52.382;5.270;2023-11-21T08:32:02;4.30;;;2.20;;
10061;SDS011;5070;52.382;5.270;2023-11-21T08:34:31;6.32;;;2.00;;
10061;SDS011;5070;52.382;5.270;2023-11-21T08:37:00;8.57;;;2.80;;
10061;SDS011;5070;52.382;5.270;2023-11-21T08:39:29;3.45;;;2.25;;
10061;SDS011;5070;52.382;5.270;2023-11-21T08:42:00;2.40;;;1.38;;
10061;SDS011;5070;52.382;5.270;2023-11-21T08:44:31;7.28;;;2.25;;
10061;SDS011;5070;52.382;5.270;2023-11-21T08:46:59;2.45;;;1.65;;
10061;SDS011;5070;52.382;5.270;2023-11-21T08:49:28;3.38;;;2.67;;
10061;SDS011;5070;52.382;5.270;2023-11-21T08:51:56;8.18;;;2.10;;
10061;SDS011;5070;52.382;5.270;2023-11-21T08:54:26;2.30;;;1.58;;
10061;SDS011;5070;52.382;5.270;2023-11-21T08:56:55;2.65;;;1.45;;
10061;SDS011;5070;52.382;5.270;2023-11-21T08:59:24;5.97;;;2.40;;
10061;SDS011;5070;52.382;5.270;2023-11-21T09:01:52;3.95;;;1.60;;
10061;SDS011;5070;52.382;5.270;2023-11-21T09:04:20;3.55;;;1.60;;
10061;SDS011;5070;52.382;5.270;2023-11-21T09:06:48;1.95;;;1.25;;
10061;SDS011;5070;52.382;5.270;2023-11-21T09:09:16;2.78;;;2.00;;
10061;SDS011;5070;52.382;5.270;2023-11-21T09:11:46;2.63;;;2.30;;
10061;SDS011;5070;52.382;5.270;2023-11-21T09:14:16;3.15;;;1.90;;
10061;SDS011;5070;52.382;5.270;2023-11-21T09:16:44;2.78;;;2.20;;
10061;SDS011;5070;52.382;5.270;2023-11-21T09:19:13;7.63;;;2.00;;
10061;SDS011;5070;52.382;5.270;2023-11-21T09:21:41;3.80;;;2.30;;
10061;SDS011;5070;52.382;5.270;2023-11-21T09:24:10;2.90;;;2.10;;
10061;SDS011;5070;52.382;5.270;2023-11-21T09:26:38;6.03;;;2.10;;
10061;SDS011;5070;52.382;5.270;2023-11-21T09:29:05;2.30;;;1.48;;
10061;SDS011;5070;52.382;5.270;2023-11-21T09:31:36;2.78;;;1.67;;
10061;SDS011;5070;52.382;5.270;2023-11-21T09:34:05;3.97;;;2.10;;
10061;SDS011;5070;52.382;5.270;2023-11-21T09:36:33;4.10;;;2.35;;
10061;SDS011;5070;52.382;5.270;2023-11-21T09:39:01;2.08;;;1.50;;
10061;SDS011;5070;52.382;5.270;2023-11-21T09:41:34;2.85;;;1.77;;
10061;SDS011;5070;52.382;5.270;2023-11-21T09:44:08;4.60;;;2.17;;
10061;SDS011;5070;52.382;5.270;2023-11-21T09:46:42;3.13;;;2.28;;
10061;SDS011;5070;52.382;5.270;2023-11-21T09:49:10;5.93;;;1.98;;
10061;SDS011;5070;52.382;5.270;2023-11-21T09:51:42;3.97;;;3.20;;
10061;SDS011;5070;52.382;5.270;2023-11-21T09:54:10;6.00;;;3.40;;
10061;SDS011;5070;52.382;5.270;2023-11-21T09:56:39;2.67;;;2.22;;
10061;SDS011;5070;52.382;5.270;2023-11-21T09:59:09;2.67;;;2.40;;
10061;SDS011;5070;52.382;5.270;2023-11-21T10:01:43;2.30;;;1.95;;
10061;SDS011;5070;52.382;5.270;2023-11-21T10:04:13;4.18;;;1.90;;
10061;SDS011;5070;52.382;5.270;2023-11-21T10:06:42;2.60;;;1.40;;
10061;SDS011;5070;52.382;5.270;2023-11-21T10:09:12;9.90;;;2.03;;
10061;SDS011;5070;52.382;5.270;2023-11-21T10:11:43;4.00;;;1.75;;
10061;SDS011;5070;52.382;5.270;2023-11-21T10:14:12;3.60;;;2.95;;
10061;SDS011;5070;52.382;5.270;2023-11-21T10:16:41;2.17;;;1.58;;
10061;SDS011;5070;52.382;5.270;2023-11-21T10:19:14;4.45;;;1.73;;
10061;SDS011;5070;52.382;5.270;2023-11-21T10:21:43;5.60;;;2.15;;
10061;SDS011;5070;52.382;5.270;2023-11-21T10:24:11;4.88;;;2.17;;
10061;SDS011;5070;52.382;5.270;2023-11-21T10:26:39;3.42;;;2.60;;
10061;SDS011;5070;52.382;5.270;2023-11-21T10:29:18;4.55;;;2.75;;
10061;SDS011;5070;52.382;5.270;2023-11-21T10:31:49;4.82;;;1.90;;
10061;SDS011;5070;52.382;5.270;2023-11-21T10:34:19;2.58;;;1.48;;
10061;SDS011;5070;52.382;5.270;2023-11-21T10:36:48;9.32;;;2.35;;
10061;SDS011;5070;52.382;5.270;2023-11-21T10:39:16;1.95;;;1.30;;
10061;SDS011;5070;52.382;5.270;2023-11-21T10:41:46;3.00;;;2.05;;
10061;SDS011;5070;52.382;5.270;2023-11-21T10:44:15;6.22;;;2.50;;
10061;SDS011;5070;52.382;5.270;2023-11-21T10:46:48;5.30;;;1.67;;
10061;SDS011;5070;52.382;5.270;2023-11-21T10:49:19;5.38;;;1.55;;
10061;SDS011;5070;52.382;5.270;2023-11-21T10:51:48;2.80;;;2.65;;
10061;SDS011;5070;52.382;5.270;2023-11-21T10:54:18;6.32;;;2.10;;
10061;SDS011;5070;52.382;5.270;2023-11-21T10:56:48;2.10;;;1.42;;
10061;SDS011;5070;52.382;5.270;2023-11-21T10:59:17;8.45;;;2.17;;
10061;SDS011;5070;52.382;5.270;2023-11-21T11:01:47;3.97;;;1.50;;
10061;SDS011;5070;52.382;5.270;2023-11-21T11:04:20;2.75;;;2.45;;
10061;SDS011;5070;52.382;5.270;2023-11-21T11:06:54;2.65;;;1.75;;
10061;SDS011;5070;52.382;5.270;2023-11-21T11:09:24;2.75;;;1.27;;
10061;SDS011;5070;52.382;5.270;2023-11-21T11:11:53;4.43;;;2.58;;
10061;SDS011;5070;52.382;5.270;2023-11-21T11:14:21;3.13;;;2.63;;
10061;SDS011;5070;52.382;5.270;2023-11-21T11:16:53;3.25;;;1.63;;
10061;SDS011;5070;52.382;5.270;2023-11-21T11:19:24;1.92;;;1.17;;
10061;SDS011;5070;52.382;5.270;2023-11-21T11:21:56;5.70;;;2.33;;
10061;SDS011;5070;52.382;5.270;2023-11-21T11:24:40;5.25;;;2.35;;
10061;SDS011;5070;52.382;5.270;2023-11-21T11:27:23;4.82;;;2.65;;
10061;SDS011;5070;52.382;5.270;2023-11-21T11:30:04;3.40;;;1.88;;
10061;SDS011;5070;52.382;5.270;2023-11-21T11:32:43;8.13;;;3.75;;
10061;SDS011;5070;52.382;5.270;2023-11-21T11:35:26;5.60;;;3.35;;
10061;SDS011;5070;52.382;5.270;2023-11-21T11:38:01;2.97;;;2.13;;
10061;SDS011;5070;52.382;5.270;2023-11-21T11:40:38;3.85;;;2.35;;
10061;SDS011;5070;52.382;5.270;2023-11-21T11:43:07;2.85;;;2.40;;
10061;SDS011;5070;52.382;5.270;2023-11-21T11:45:36;4.72;;;2.72;;
10061;SDS011;5070;52.382;5.270;2023-11-21T11:48:07;4.22;;;2.00;;
10061;SDS011;5070;52.382;5.270;2023-11-21T11:50:43;3.22;;;2.63;;
10061;SDS011;5070;52.382;5.270;2023-11-21T11:53:33;5.70;;;3.90;;
10061;SDS011;5070;52.382;5.270;2023-11-21T11:56:28;3.67;;;2.55;;
10061;SDS011;5070;52.382;5.270;2023-11-21T11:59:00;5.35;;;3.08;;
10061;SDS011;5070;52.382;5.270;2023-11-21T12:01:31;3.58;;;2.33;;
10061;SDS011;5070;52.382;5.270;2023-11-21T12:07:00;6.25;;;2.95;;
10061;SDS011;5070;52.382;5.270;2023-11-21T12:09:30;9.00;;;2.58;;
10061;SDS011;5070;52.382;5.270;2023-11-21T12:11:59;4.82;;;2.88;;
10061;SDS011;5070;52.382;5.270;2023-11-21T12:14:27;3.30;;;2.13;;
10061;SDS011;5070;52.382;5.270;2023-11-21T12:16:55;4.65;;;2.33;;
10061;SDS011;5070;52.382;5.270;2023-11-21T12:19:23;4.53;;;2.30;;
10061;SDS011;5070;52.382;5.270;2023-11-21T12:21:52;3.30;;;2.80;;
10061;SDS011;5070;52.382;5.270;2023-11-21T12:24:23;2.83;;;2.25;;
10061;SDS011;5070;52.382;5.270;2023-11-21T12:26:52;2.47;;;2.17;;
10061;SDS011;5070;52.382;5.270;2023-11-21T12:29:20;3.00;;;1.85;;
10061;SDS011;5070;52.382;5.270;2023-11-21T12:31:48;2.95;;;2.40;;
10061;SDS011;5070;52.382;5.270;2023-11-21T12:34:17;7.50;;;2.28;;
10061;SDS011;5070;52.382;5.270;2023-11-21T12:36:45;5.28;;;2.85;;
10061;SDS011;5070;52.382;5.270;2023-11-21T12:39:13;3.70;;;2.55;;
10061;SDS011;5070;52.382;5.270;2023-11-21T12:41:43;2.75;;;1.63;;
10061;SDS011;5070;52.382;5.270;2023-11-21T12:44:12;3.08;;;1.95;;
10061;SDS011;5070;52.382;5.270;2023-11-21T12:46:44;3.55;;;2.00;;
10061;SDS011;5070;52.382;5.270;2023-11-21T12:49:13;3.75;;;2.00;;
10061;SDS011;5070;52.382;5.270;2023-11-21T12:51:45;2.42;;;1.75;;
10061;SDS011;5070;52.382;5.270;2023-11-21T12:54:13;4.53;;;2.72;;
10061;SDS011;5070;52.382;5.270;2023-11-21T12:56:44;9.13;;;3.05;;
10061;SDS011;5070;52.382;5.270;2023-11-21T12:59:15;4.45;;;2.95;;
10061;SDS011;5070;52.382;5.270;2023-11-21T13:01:44;6.10;;;2.40;;
10061;SDS011;5070;52.382;5.270;2023-11-21T13:04:16;4.30;;;2.78;;
10061;SDS011;5070;52.382;5.270;2023-11-21T13:06:45;7.60;;;2.22;;
10061;SDS011;5070;52.382;5.270;2023-11-21T13:09:14;2.30;;;1.95;;
10061;SDS011;5070;52.382;5.270;2023-11-21T13:11:49;2.75;;;1.80;;
10061;SDS011;5070;52.382;5.270;2023-11-21T13:14:18;3.00;;;2.15;;
10061;SDS011;5070;52.382;5.270;2023-11-21T13:16:46;9.65;;;1.85;;
10061;SDS011;5070;52.382;5.270;2023-11-21T13:19:15;5.65;;;1.80;;
10061;SDS011;5070;52.382;5.270;2023-11-21T13:21:43;4.55;;;2.45;;
10061;SDS011;5070;52.382;5.270;2023-11-21T13:24:11;5.95;;;1.90;;
10061;SDS011;5070;52.382;5.270;2023-11-21T13:26:39;2.03;;;1.27;;
10061;SDS011;5070;52.382;5.270;2023-11-21T13:29:08;2.40;;;2.00;;
10061;SDS011;5070;52.382;5.270;2023-11-21T13:31:39;3.53;;;1.88;;
10061;SDS011;5070;52.382;5.270;2023-11-21T13:34:08;2.80;;;1.95;;
10061;SDS011;5070;52.382;5.270;2023-11-21T13:36:41;3.35;;;2.17;;
10061;SDS011;5070;52.382;5.270;2023-11-21T13:39:09;4.43;;;2.25;;
10061;SDS011;5070;52.382;5.270;2023-11-21T13:41:42;3.28;;;3.00;;
10061;SDS011;5070;52.382;5.270;2023-11-21T13:44:11;3.08;;;1.83;;
10061;SDS011;5070;52.382;5.270;2023-11-21T13:46:52;2.50;;;1.80;;
10061;SDS011;5070;52.382;5.270;2023-11-21T13:49:23;2.40;;;1.70;;
10061;SDS011;5070;52.382;5.270;2023-11-21T13:51:53;5.45;;;1.83;;
10061;SDS011;5070;52.382;5.270;2023-11-21T13:54:22;4.82;;;2.63;;
10061;SDS011;5070;52.382;5.270;2023-11-21T13:56:51;2.80;;;1.90;;
10061;SDS011;5070;52.382;5.270;2023-11-21T13:59:22;2.67;;;1.52;;
10061;SDS011;5070;52.382;5.270;2023-11-21T14:01:52;3.17;;;2.05;;
10061;SDS011;5070;52.382;5.270;2023-11-21T14:04:26;3.53;;;2.80;;
10061;SDS011;5070;52.382;5.270;2023-11-21T14:07:11;4.70;;;4.45;;
10061;SDS011;5070;52.382;5.270;2023-11-21T14:09:53;5.65;;;2.30;;
10061;SDS011;5070;52.382;5.270;2023-11-21T14:12:21;5.68;;;2.30;;
10061;SDS011;5070;52.382;5.270;2023-11-21T14:14:50;9.80;;;2.30;;
10061;SDS011;5070;52.382;5.270;2023-11-21T14:17:18;2.10;;;1.80;;
10061;SDS011;5070;52.382;5.270;2023-11-21T14:19:49;5.28;;;2.67;;
10061;SDS011;5070;52.382;5.270;2023-11-21T14:22:17;3.13;;;2.15;;
10061;SDS011;5070;52.382;5.270;2023-11-21T14:24:45;2.75;;;1.52;;
10061;SDS011;5070;52.382;5.270;2023-11-21T14:27:13;2.42;;;1.40;;
10061;SDS011;5070;52.382;5.270;2023-11-21T14:29:42;3.53;;;2.30;;
10061;SDS011;5070;52.382;5.270;2023-11-21T14:32:13;2.75;;;1.63;;
10061;SDS011;5070;52.382;5.270;2023-11-21T14:34:42;2.28;;;1.85;;
10061;SDS011;5070;52.382;5.270;2023-11-21T14:37:13;3.00;;;2.38;;
10061;SDS011;5070;52.382;5.270;2023-11-21T14:39:41;3.10;;;2.03;;
10061;SDS011;5070;52.382;5.270;2023-11-21T14:42:12;2.80;;;1.73;;
10061;SDS011;5070;52.382;5.270;2023-11-21T14:44:42;2.47;;;1.67;;
10061;SDS011;5070;52.382;5.270;2023-11-21T14:47:10;2.80;;;2.60;;
10061;SDS011;5070;52.382;5.270;2023-11-21T14:49:44;9.07;;;3.92;;
10061;SDS011;5070;52.382;5.270;2023-11-21T14:52:19;3.45;;;2.00;;
10061;SDS011;5070;52.382;5.270;2023-11-21T14:54:59;2.70;;;2.53;;
10061;SDS011;5070;52.382;5.270;2023-11-21T14:57:41;2.40;;;1.70;;
10061;SDS011;5070;52.382;5.270;2023-11-21T15:00:16;3.72;;;1.95;;
10061;SDS011;5070;52.382;5.270;2023-11-21T15:03:02;3.92;;;2.70;;
10061;SDS011;5070;52.382;5.270;2023-11-21T15:05:33;3.08;;;2.55;;
10061;SDS011;5070;52.382;5.270;2023-11-21T15:08:01;5.30;;;2.67;;
10061;SDS011;5070;52.382;5.270;2023-11-21T15:10:45;3.83;;;3.35;;
10061;SDS011;5070;52.382;5.270;2023-11-21T15:13:14;2.90;;;1.70;;
10061;SDS011;5070;52.382;5.270;2023-11-21T15:15:42;3.08;;;2.38;;
10061;SDS011;5070;52.382;5.270;2023-11-21T15:18:09;2.60;;;2.40;;